createdAt,value
2018-06-24T00:00:56.391Z,61.20
2018-06-24T00:03:26.604Z,61.40
2018-06-24T00:05:56.745Z,61.50
2018-06-24T00:08:27.432Z,61.60
2018-06-24T00:10:57.543Z,61.80
2018-06-24T00:13:27.668Z,61.90
2018-06-24T00:15:57.893Z,61.90
2018-06-24T00:18:28.015Z,62.00
2018-06-24T00:20:58.175Z,61.90
2018-06-24T00:23:28.327Z,61.80
2018-06-24T00:25:58.675Z,61.90
2018-06-24T00:28:28.863Z,62.00
2018-06-24T00:30:58.990Z,62.00
2018-06-24T00:33:29.109Z,62.20
2018-06-24T00:35:59.241Z,62.30
2018-06-24T00:38:29.373Z,63.10
2018-06-24T00:40:59.500Z,62.50
2018-06-24T00:43:29.625Z,62.50
2018-06-24T00:45:59.836Z,62.60
2018-06-24T00:48:29.943Z,62.70
2018-06-24T00:51:00.642Z,62.70
2018-06-24T00:53:30.857Z,62.80
2018-06-24T00:56:01.078Z,62.70
2018-06-24T00:58:31.749Z,62.90
2018-06-24T01:01:02.373Z,62.90
2018-06-24T01:03:32.579Z,63.00
2018-06-24T01:06:02.901Z,63.10
2018-06-24T01:08:33.125Z,63.30
2018-06-24T01:11:03.345Z,63.20
2018-06-24T01:13:33.506Z,63.10
2018-06-24T01:16:03.708Z,63.30
2018-06-24T01:18:33.924Z,63.20
2018-06-24T01:21:04.166Z,63.10
2018-06-24T01:23:34.316Z,63.20
2018-06-24T01:26:04.538Z,63.00
2018-06-24T01:28:34.624Z,63.10
2018-06-24T01:31:04.842Z,63.20
2018-06-24T01:33:35.114Z,63.50
2018-06-24T01:36:05.370Z,63.50
2018-06-24T01:38:35.425Z,63.80
2018-06-24T01:41:05.594Z,63.90
2018-06-24T01:43:35.670Z,64.10
2018-06-24T01:46:05.808Z,64.30
2018-06-24T01:48:35.908Z,64.30
2018-06-24T01:51:06.189Z,64.50
2018-06-24T01:53:36.318Z,64.50
2018-06-24T01:56:06.398Z,64.50
2018-06-24T01:58:36.508Z,64.60
2018-06-24T02:01:06.841Z,64.80
2018-06-24T02:03:36.996Z,64.90
2018-06-24T02:06:07.501Z,65.00
2018-06-24T02:08:37.968Z,64.90
2018-06-24T02:11:08.072Z,64.90
2018-06-24T02:13:38.078Z,64.90
2018-06-24T02:16:08.255Z,65.10
2018-06-24T02:18:38.334Z,65.90
2018-06-24T02:21:08.564Z,65.20
2018-06-24T02:23:38.650Z,65.10
2018-06-24T02:26:09.194Z,65.00
2018-06-24T02:28:39.376Z,64.90
2018-06-24T02:31:09.532Z,64.80
2018-06-24T02:33:39.552Z,64.90
2018-06-24T02:36:09.698Z,64.90
2018-06-24T02:38:39.724Z,64.80
2018-06-24T02:41:09.868Z,64.90
2018-06-24T02:43:40.102Z,65.10
2018-06-24T02:46:10.397Z,65.10
2018-06-24T02:48:40.685Z,65.20
2018-06-24T02:51:11.324Z,65.30
2018-06-24T02:53:41.455Z,65.40
2018-06-24T02:56:11.532Z,65.30
2018-06-24T02:58:42.212Z,65.30
2018-06-24T03:01:12.281Z,65.30
2018-06-24T03:03:42.352Z,65.50
2018-06-24T03:06:12.465Z,65.70
2018-06-24T03:08:42.588Z,65.70
2018-06-24T03:11:12.688Z,65.80
2018-06-24T03:13:42.703Z,65.80
2018-06-24T03:16:12.773Z,66.00
2018-06-24T03:18:42.901Z,66.90
2018-06-24T03:21:13.474Z,66.80
2018-06-24T03:23:43.584Z,66.80
2018-06-24T03:26:13.686Z,66.20
2018-06-24T03:28:43.817Z,66.30
2018-06-24T03:31:13.991Z,66.30
2018-06-24T03:33:44.103Z,66.20
2018-06-24T03:36:15.159Z,66.10
2018-06-24T03:38:45.183Z,66.10
2018-06-24T03:41:15.295Z,66.30
2018-06-24T03:43:45.325Z,66.30
2018-06-24T03:46:15.367Z,66.20
2018-06-24T03:48:45.551Z,66.10
2018-06-24T03:51:15.825Z,66.80
2018-06-24T03:53:45.873Z,66.20
2018-06-24T03:56:16.119Z,66.20
2018-06-24T03:58:46.207Z,66.10
2018-06-24T04:01:16.335Z,66.00
2018-06-24T04:03:46.450Z,66.00
2018-06-24T04:06:16.606Z,65.90
2018-06-24T04:08:46.677Z,66.10
2018-06-24T04:11:16.860Z,65.80
2018-06-24T04:13:46.974Z,65.80
2018-06-24T04:16:17.215Z,66.00
2018-06-24T04:18:47.272Z,66.00
2018-06-24T04:21:17.430Z,66.00
2018-06-24T04:23:47.531Z,66.20
2018-06-24T04:26:17.593Z,66.10
2018-06-24T04:28:48.417Z,66.20
2018-06-24T04:31:18.761Z,66.20
2018-06-24T04:33:48.792Z,66.50
2018-06-24T04:36:18.954Z,66.50
2018-06-24T04:38:49.046Z,66.40
2018-06-24T04:41:19.128Z,66.40
2018-06-24T04:43:49.213Z,66.30
2018-06-24T04:46:19.395Z,66.30
2018-06-24T04:48:49.443Z,66.40
2018-06-24T04:51:19.558Z,66.40
2018-06-24T04:53:49.734Z,66.20
2018-06-24T04:56:19.864Z,65.90
2018-06-24T04:58:49.955Z,65.80
2018-06-24T05:01:20.137Z,65.60
2018-06-24T05:03:50.347Z,65.60
2018-06-24T05:06:20.499Z,65.30
2018-06-24T05:08:50.579Z,66.00
2018-06-24T05:11:20.707Z,65.00
2018-06-24T05:13:50.833Z,64.90
2018-06-24T05:16:21.841Z,65.10
2018-06-24T05:18:52.035Z,65.30
2018-06-24T05:21:22.202Z,64.90
2018-06-24T05:23:52.342Z,64.80
2018-06-24T05:26:22.455Z,64.70
2018-06-24T05:28:52.512Z,64.50
2018-06-24T05:31:22.723Z,64.10
2018-06-24T05:33:52.788Z,63.40
2018-06-24T05:38:53.148Z,63.10
2018-06-24T05:41:23.304Z,63.20
2018-06-24T05:43:53.414Z,63.00
2018-06-24T05:46:23.604Z,62.10
2018-06-24T05:48:53.744Z,62.00
2018-06-24T05:51:23.842Z,62.10
2018-06-24T05:53:53.962Z,61.60
2018-06-24T05:56:24.214Z,61.60
2018-06-24T05:58:54.396Z,61.70
2018-06-24T06:01:24.646Z,61.40
2018-06-24T06:03:55.004Z,61.10
2018-06-24T06:06:25.194Z,60.60
2018-06-24T06:08:55.415Z,60.30
2018-06-24T06:11:25.642Z,60.20
2018-06-24T06:13:55.806Z,59.80
2018-06-24T06:16:25.870Z,59.60
2018-06-24T06:18:56.212Z,58.00
2018-06-24T06:21:26.492Z,58.00
2018-06-24T06:23:56.676Z,57.90
2018-06-24T06:26:26.874Z,58.00
2018-06-24T06:28:56.948Z,57.70
2018-06-24T06:31:27.004Z,58.00
2018-06-24T06:33:57.134Z,58.00
2018-06-24T06:36:27.667Z,57.70
2018-06-24T06:38:58.205Z,57.40
2018-06-24T06:41:28.700Z,56.80
2018-06-24T06:43:58.912Z,56.80
2018-06-24T06:46:29.135Z,55.80
2018-06-24T06:48:59.224Z,55.80
2018-06-24T06:51:29.420Z,54.90
2018-06-24T06:53:59.479Z,55.20
2018-06-24T06:56:30.086Z,54.20
2018-06-24T06:59:00.614Z,54.00
2018-06-24T07:01:30.797Z,53.90
2018-06-24T07:04:02.133Z,54.10
2018-06-24T07:06:32.483Z,54.00
2018-06-24T07:09:02.596Z,53.60
2018-06-24T07:11:32.929Z,53.30
2018-06-24T07:14:03.474Z,53.20
2018-06-24T07:16:34.462Z,52.90
2018-06-24T07:19:04.629Z,52.50
2018-06-24T07:21:34.829Z,52.00
2018-06-24T07:24:05.019Z,51.10
2018-06-24T07:26:35.106Z,51.20
2018-06-24T07:29:05.442Z,52.00
2018-06-24T07:31:35.888Z,51.60
2018-06-24T07:34:06.248Z,51.70
2018-06-24T07:36:36.651Z,51.40
2018-06-24T07:39:10.079Z,51.50
2018-06-24T07:41:41.130Z,51.30
2018-06-24T07:44:11.386Z,50.90
2018-06-24T07:46:41.521Z,51.00
2018-06-24T07:49:11.642Z,50.90
2018-06-24T07:51:42.480Z,51.60
2018-06-24T07:54:13.213Z,51.50
2018-06-24T07:56:43.297Z,51.20
2018-06-24T07:59:13.461Z,50.60
2018-06-24T08:01:43.764Z,49.80
2018-06-24T08:04:13.957Z,50.40
2018-06-24T08:06:44.113Z,50.50
2018-06-24T08:09:14.339Z,51.10
2018-06-24T08:11:44.520Z,50.50
2018-06-24T08:14:14.793Z,50.20
2018-06-24T08:16:44.984Z,50.20
2018-06-24T08:19:15.111Z,49.90
2018-06-24T08:21:45.911Z,50.20
2018-06-24T08:24:16.697Z,49.60
2018-06-24T08:26:47.527Z,50.10
2018-06-24T08:29:17.751Z,49.80
2018-06-24T08:31:48.191Z,49.70
2018-06-24T08:34:19.109Z,49.90
2018-06-24T08:36:49.407Z,50.10
2018-06-24T08:39:19.671Z,50.40
2018-06-24T08:41:49.816Z,50.20
2018-06-24T08:44:19.978Z,49.70
2018-06-24T08:46:50.163Z,49.10
2018-06-24T08:49:20.257Z,49.00
2018-06-24T08:51:52.156Z,48.20
2018-06-24T08:54:22.496Z,48.00
2018-06-24T08:56:52.583Z,47.30
2018-06-24T08:59:22.721Z,47.10
2018-06-24T09:01:53.686Z,46.90
2018-06-24T09:04:23.916Z,46.80
2018-06-24T09:06:54.048Z,47.00
2018-06-24T09:09:24.200Z,47.00
2018-06-24T09:11:54.329Z,47.10
2018-06-24T09:14:24.388Z,47.20
2018-06-24T09:16:54.551Z,47.70
2018-06-24T09:19:24.605Z,47.90
2018-06-24T09:21:54.702Z,47.50
2018-06-24T09:24:25.173Z,47.20
2018-06-24T09:26:55.879Z,46.80
2018-06-24T09:29:26.040Z,46.20
2018-06-24T09:31:56.818Z,46.00
2018-06-24T09:34:26.907Z,46.20
2018-06-24T09:36:57.083Z,46.60
2018-06-24T09:39:27.333Z,46.70
2018-06-24T09:41:57.884Z,46.90
2018-06-24T09:44:28.158Z,47.40
2018-06-24T09:46:58.283Z,47.50
2018-06-24T09:49:28.346Z,47.90
2018-06-24T09:52:00.607Z,48.20
2018-06-24T09:54:30.725Z,48.20
2018-06-24T09:57:01.207Z,47.60
2018-06-24T09:59:31.293Z,47.00
2018-06-24T10:02:01.885Z,47.30
2018-06-24T10:04:32.105Z,47.50
2018-06-24T10:07:02.255Z,47.60
2018-06-24T10:09:32.353Z,47.50
2018-06-24T10:12:02.592Z,47.90
2018-06-24T10:14:32.869Z,47.20
2018-06-24T10:17:03.089Z,46.60
2018-06-24T10:19:33.301Z,46.60
2018-06-24T10:22:03.365Z,46.10
2018-06-24T10:24:33.372Z,46.00
2018-06-24T10:27:03.535Z,45.60
2018-06-24T10:29:34.669Z,45.40
2018-06-24T10:32:05.291Z,45.10
2018-06-24T10:34:35.879Z,44.40
2018-06-24T10:37:06.065Z,43.40
2018-06-24T10:39:36.262Z,43.00
2018-06-24T10:42:07.107Z,43.20
2018-06-24T10:44:37.832Z,43.20
2018-06-24T10:47:08.060Z,43.40
2018-06-24T10:49:38.260Z,42.90
2018-06-24T10:52:08.575Z,42.60
2018-06-24T10:54:39.265Z,42.90
2018-06-24T10:57:09.576Z,43.20
2018-06-24T10:59:39.688Z,43.10
2018-06-24T11:02:09.884Z,43.40
2018-06-24T11:04:40.042Z,43.60
2018-06-24T11:07:10.126Z,43.30
2018-06-24T11:09:40.282Z,42.70
2018-06-24T11:12:10.375Z,42.70
2018-06-24T11:14:40.449Z,42.70
2018-06-24T11:17:11.896Z,43.00
2018-06-24T11:19:43.211Z,43.10
2018-06-24T11:22:13.369Z,42.70
2018-06-24T11:24:43.479Z,42.80
2018-06-24T11:27:13.602Z,42.70
2018-06-24T11:29:43.744Z,43.40
2018-06-24T11:32:13.929Z,42.70
2018-06-24T11:34:43.977Z,42.90
2018-06-24T11:37:14.093Z,42.90
2018-06-24T11:39:44.319Z,43.50
2018-06-24T11:42:14.475Z,44.30
2018-06-24T11:44:44.693Z,44.60
2018-06-24T11:47:14.898Z,44.60
2018-06-24T11:49:44.970Z,44.80
2018-06-24T11:52:15.089Z,44.70
2018-06-24T11:54:45.171Z,44.70
2018-06-24T11:57:15.293Z,44.80
2018-06-24T11:59:45.625Z,44.80
2018-06-24T12:02:15.777Z,45.90
2018-06-24T12:04:45.875Z,45.30
2018-06-24T12:07:15.981Z,45.30
2018-06-24T12:09:46.155Z,45.20
2018-06-24T12:12:16.313Z,45.00
2018-06-24T12:14:46.425Z,44.90
2018-06-24T12:17:16.629Z,44.70
2018-06-24T12:19:46.765Z,44.70
2018-06-24T12:22:17.531Z,44.40
2018-06-24T12:24:47.800Z,43.90
2018-06-24T12:27:18.743Z,43.70
2018-06-24T12:29:48.971Z,43.50
2018-06-24T12:32:19.067Z,43.50
2018-06-24T12:34:49.195Z,43.20
2018-06-24T12:37:19.429Z,42.90
2018-06-24T12:39:49.609Z,42.70
2018-06-24T12:42:19.966Z,42.30
2018-06-24T12:44:50.669Z,42.20
2018-06-24T12:47:20.797Z,42.00
2018-06-24T12:52:35.302Z,41.00
2018-06-24T12:55:05.436Z,40.20
2018-06-24T12:57:35.757Z,39.80
2018-06-24T13:00:07.157Z,39.00
2018-06-24T13:02:37.069Z,39.80
2018-06-24T13:05:07.157Z,39.30
2018-06-24T13:07:37.483Z,39.40
2018-06-24T13:10:08.139Z,38.10
2018-06-24T13:12:38.339Z,37.60
2018-06-24T13:15:08.781Z,36.70
2018-06-24T13:17:38.910Z,36.80
2018-06-24T13:20:08.978Z,36.20
2018-06-24T13:22:39.170Z,36.20
2018-06-24T13:25:09.348Z,36.20
2018-06-24T13:27:39.707Z,36.10
2018-06-24T13:30:10.056Z,35.90
2018-06-24T13:32:40.393Z,36.20
2018-06-24T13:35:10.605Z,37.50
2018-06-24T13:37:40.773Z,37.30
2018-06-24T13:40:10.995Z,37.50
2018-06-24T13:42:41.877Z,37.50
2018-06-24T13:45:11.989Z,37.80
2018-06-24T13:47:42.730Z,37.20
2018-06-24T13:50:12.744Z,37.00
2018-06-24T13:52:42.950Z,36.80
2018-06-24T13:55:12.998Z,36.50
2018-06-24T13:57:43.294Z,36.90
2018-06-24T14:00:14.414Z,37.20
2018-06-24T14:02:45.394Z,37.30
2018-06-24T14:05:15.564Z,37.40
2018-06-24T14:07:45.799Z,37.30
2018-06-24T14:10:15.855Z,36.80
2018-06-24T14:12:46.124Z,36.70
2018-06-24T14:15:16.705Z,36.90
2018-06-24T14:17:46.856Z,37.10
2018-06-24T14:20:16.968Z,37.40
2018-06-24T14:25:16.925Z,38.00
2018-06-24T14:27:46.962Z,38.40
2018-06-24T14:30:17.096Z,38.70
2018-06-24T14:32:53.496Z,38.90
2018-06-24T14:35:23.579Z,38.40
2018-06-24T14:37:53.824Z,37.10
2018-06-24T14:40:24.062Z,37.30
2018-06-24T14:42:54.283Z,37.80
2018-06-24T14:45:24.468Z,38.60
2018-06-24T14:47:54.563Z,39.70
2018-06-24T14:50:24.720Z,39.20
2018-06-24T14:52:55.748Z,33.70
2018-06-24T14:57:56.388Z,28.20
2018-06-24T15:00:26.497Z,25.90
2018-06-24T15:02:56.565Z,23.80
2018-06-24T15:05:26.696Z,23.70
2018-06-24T15:07:56.927Z,22.60
2018-06-24T15:10:27.129Z,21.80
2018-06-24T15:12:57.285Z,20.70
2018-06-24T15:15:27.333Z,21.50
2018-06-24T15:17:57.413Z,23.40
2018-06-24T15:20:28.379Z,25.30
2018-06-24T15:22:58.711Z,26.50
2018-06-24T15:25:28.897Z,27.10
2018-06-24T15:27:59.196Z,27.60
2018-06-24T15:30:30.164Z,28.60
2018-06-24T15:33:00.372Z,30.20
2018-06-24T15:35:31.003Z,28.60
2018-06-24T15:38:01.141Z,29.10
2018-06-24T15:40:31.331Z,29.90
2018-06-24T15:43:01.462Z,28.80
2018-06-24T15:45:32.203Z,28.80
2018-06-24T15:48:02.335Z,29.40
2018-06-24T15:50:32.379Z,29.90
2018-06-24T15:53:02.467Z,27.70
2018-06-24T15:55:32.683Z,26.50
2018-06-24T15:58:02.835Z,26.40
2018-06-24T16:00:33.190Z,27.80
2018-06-24T16:03:03.344Z,29.00
2018-06-24T16:05:33.484Z,30.40
2018-06-24T16:08:04.585Z,31.50
2018-06-24T16:10:34.790Z,32.50
2018-06-24T16:13:05.134Z,33.80
2018-06-24T16:15:35.536Z,34.70
2018-06-24T16:18:05.804Z,34.60
2018-06-24T16:20:36.359Z,35.60
2018-06-24T16:23:06.336Z,35.70
2018-06-24T16:25:36.536Z,35.80
2018-06-24T16:28:07.931Z,36.00
2018-06-24T16:30:38.263Z,36.50
2018-06-24T16:33:08.382Z,36.60
2018-06-24T16:35:38.561Z,36.80
2018-06-24T16:38:08.783Z,37.20
2018-06-24T16:40:39.516Z,37.60
2018-06-24T16:43:09.697Z,37.30
2018-06-24T16:45:40.777Z,38.60
2018-06-24T16:48:10.933Z,38.70
2018-06-24T16:50:41.413Z,38.90
2018-06-24T16:53:11.652Z,39.80
2018-06-24T16:55:41.912Z,39.90
2018-06-24T16:58:12.170Z,40.10
2018-06-24T17:00:42.409Z,40.00
2018-06-24T17:03:12.647Z,39.80
2018-06-24T17:05:42.798Z,38.90
2018-06-24T17:08:12.903Z,38.70
2018-06-24T17:10:43.072Z,38.60
2018-06-24T17:13:13.213Z,38.80
2018-06-24T17:15:44.283Z,39.70
2018-06-24T17:18:14.462Z,40.00
2018-06-24T17:20:44.622Z,40.60
2018-06-24T17:23:14.769Z,41.00
2018-06-24T17:25:44.866Z,41.10
2018-06-24T17:30:38.207Z,41.20
2018-06-24T17:33:08.385Z,41.20
2018-06-24T17:35:38.527Z,41.50
2018-06-24T17:38:08.706Z,41.50
2018-06-24T17:40:38.822Z,41.50
2018-06-24T17:43:08.902Z,41.40
2018-06-24T17:45:39.006Z,41.30
2018-06-24T17:48:09.160Z,41.20
2018-06-24T17:50:40.148Z,40.90
2018-06-24T17:53:10.234Z,40.90
2018-06-24T17:55:40.313Z,40.80
2018-06-24T17:58:10.474Z,40.70
2018-06-24T18:00:40.697Z,40.20
2018-06-24T18:03:11.505Z,40.00
2018-06-24T18:05:41.597Z,39.40
2018-06-24T18:08:11.748Z,39.50
2018-06-24T18:10:41.828Z,39.60
2018-06-24T18:13:12.893Z,39.40
2018-06-24T18:15:44.700Z,39.20
2018-06-24T18:18:15.116Z,39.00
2018-06-24T18:20:45.320Z,39.20
2018-06-24T18:23:15.409Z,39.80
2018-06-24T18:25:45.538Z,40.20
2018-06-24T18:28:17.070Z,41.00
2018-06-24T18:30:47.093Z,41.50
2018-06-24T18:33:17.168Z,41.90
2018-06-24T18:35:47.314Z,42.00
2018-06-24T18:38:17.414Z,42.30
2018-06-24T18:40:48.156Z,42.60
2018-06-24T18:43:18.431Z,42.80
2018-06-24T18:45:48.660Z,42.90
2018-06-24T18:48:19.092Z,43.10
2018-06-24T18:50:49.235Z,43.30
2018-06-24T18:53:19.412Z,43.40
2018-06-24T18:55:49.529Z,43.40
2018-06-24T18:58:21.269Z,43.50
2018-06-24T19:00:51.517Z,43.40
2018-06-24T19:03:21.705Z,43.50
2018-06-24T19:05:51.852Z,43.60
2018-06-24T19:08:21.963Z,43.80
2018-06-24T19:10:52.228Z,43.80
2018-06-24T19:13:22.300Z,43.90
2018-06-24T19:15:52.476Z,44.00
2018-06-24T19:18:22.694Z,44.00
2018-06-24T19:20:52.945Z,43.50
2018-06-24T19:23:22.995Z,44.20
2018-06-24T19:25:54.203Z,44.30
2018-06-24T19:28:24.516Z,44.40
2018-06-24T19:30:54.632Z,44.50
2018-06-24T19:33:24.766Z,44.70
2018-06-24T19:35:55.766Z,44.90
2018-06-24T19:38:26.103Z,45.10
2018-06-24T19:40:56.252Z,45.20
2018-06-24T19:43:26.415Z,45.60
2018-06-24T19:45:56.572Z,46.80
2018-06-24T19:48:26.782Z,47.10
2018-06-24T19:50:57.660Z,47.40
2018-06-24T19:53:31.224Z,47.60
2018-06-24T19:56:03.261Z,47.80
2018-06-24T19:58:33.807Z,48.20
2018-06-24T20:01:04.415Z,48.40
2018-06-24T20:03:34.563Z,48.90
2018-06-24T20:06:06.117Z,48.70
2018-06-24T20:08:36.749Z,48.90
2018-06-24T20:11:07.553Z,49.10
2018-06-24T20:13:37.679Z,49.10
2018-06-24T20:16:07.805Z,49.10
2018-06-24T20:18:38.025Z,49.20
2018-06-24T20:21:08.485Z,49.10
2018-06-24T20:23:38.607Z,49.40
2018-06-24T20:26:09.060Z,49.40
2018-06-24T20:28:39.139Z,49.80
2018-06-24T20:31:09.279Z,50.00
2018-06-24T20:33:39.379Z,49.90
2018-06-24T20:36:09.538Z,50.50
2018-06-24T20:38:39.651Z,50.70
2018-06-24T20:41:09.846Z,50.90
2018-06-24T20:43:40.001Z,51.10
2018-06-24T20:46:10.156Z,51.80
2018-06-24T20:48:40.312Z,52.00
2018-06-24T20:51:10.506Z,52.10
2018-06-24T20:53:40.602Z,52.00
2018-06-24T20:56:10.812Z,51.80
2018-06-24T20:58:40.820Z,51.10
2018-06-24T21:01:11.027Z,50.70
2018-06-24T21:03:41.261Z,49.60
2018-06-24T21:06:11.350Z,49.40
2018-06-24T21:08:41.785Z,48.70
2018-06-24T21:11:11.872Z,49.00
2018-06-24T21:13:42.003Z,48.70
2018-06-24T21:16:12.126Z,48.70
2018-06-24T21:18:42.598Z,48.60
2018-06-24T21:21:12.860Z,48.90
2018-06-24T21:23:42.965Z,48.70
2018-06-24T21:26:13.106Z,48.90
2018-06-24T21:28:43.267Z,48.90
2018-06-24T21:31:13.448Z,48.90
2018-06-24T21:33:43.656Z,48.90
2018-06-24T21:36:13.812Z,49.00
2018-06-24T21:38:43.993Z,49.20
2018-06-24T21:41:14.150Z,49.30
2018-06-24T21:43:44.458Z,49.40
2018-06-24T21:46:14.624Z,49.60
2018-06-24T21:48:44.918Z,49.70
2018-06-24T21:51:15.380Z,49.90
2018-06-24T21:53:45.967Z,50.10
2018-06-24T21:56:16.174Z,50.30
2018-06-24T21:58:46.428Z,50.50
2018-06-24T22:01:16.640Z,50.70
2018-06-24T22:03:47.257Z,51.80
2018-06-24T22:06:18.048Z,51.50
2018-06-24T22:08:48.138Z,51.70
2018-06-24T22:11:18.388Z,51.80
2018-06-24T22:13:48.606Z,52.00
2018-06-24T22:16:18.844Z,52.10
2018-06-24T22:18:48.980Z,52.80
2018-06-24T22:21:19.536Z,52.40
2018-06-24T22:23:49.768Z,52.40
2018-06-24T22:26:19.969Z,52.50
2018-06-24T22:28:50.094Z,52.70
2018-06-24T22:31:20.304Z,52.70
2018-06-24T22:33:56.826Z,52.70
2018-06-24T22:36:27.104Z,52.80
2018-06-24T22:38:57.224Z,52.80
2018-06-24T22:41:27.446Z,52.90
2018-06-24T22:43:58.387Z,52.90
2018-06-24T22:46:28.574Z,52.80
2018-06-24T22:48:58.665Z,52.90
2018-06-24T22:51:28.844Z,52.90
2018-06-24T22:53:58.897Z,53.00
2018-06-24T22:56:29.085Z,53.30
2018-06-24T22:59:15.997Z,53.40
2018-06-24T23:01:46.224Z,53.50
2018-06-24T23:04:16.689Z,53.50
2018-06-24T23:06:46.841Z,53.50
2018-06-24T23:09:16.937Z,53.60
2018-06-24T23:11:47.038Z,53.70
2018-06-24T23:14:17.136Z,53.90
2018-06-24T23:16:47.237Z,54.00
2018-06-24T23:19:17.333Z,54.00
2018-06-24T23:21:47.399Z,54.10
2018-06-24T23:24:17.445Z,54.20
2018-06-24T23:26:47.869Z,54.30
2018-06-24T23:29:17.887Z,54.40
2018-06-24T23:31:48.883Z,54.50
2018-06-24T23:34:18.939Z,54.50
2018-06-24T23:36:49.054Z,54.40
2018-06-24T23:39:19.159Z,54.40
2018-06-24T23:41:49.359Z,54.50
2018-06-24T23:44:19.551Z,54.70
2018-06-24T23:46:49.682Z,54.80
2018-06-24T23:49:19.751Z,55.00
2018-06-24T23:51:49.980Z,54.90
2018-06-24T23:54:20.161Z,54.90
2018-06-24T23:56:50.268Z,55.00
2018-06-24T23:59:20.400Z,55.10
